Quincy, WA

5:10 AM PDT on July 12, 2014 (GMT -0700)
Winchester (KWAQUINC2) Elev 1350 ft | 47.26 °N, 119.72 °W | Change Station
Active Advisory: Air Quality Alert

Current weather conditions updated 38 seconds ago

Clear
Clear
71.6 °F
Feels Like 77 °F
N
0.0
Wind Variable Wind from WNW
Gusts 4.0 mph

Today is forecast to be Much Warmer than yesterday.

Today
High -- | Low -- °F
--% Chance of Precip.
Yesterday
High -- | Low -- °F
Precip. -- in
5:16 AM 8:53 PM
Full, 100% visible
Pressure 29.97 in
Visibility 10.0 miles
Clouds Clear
Heat Index 77 °F
Dew Point 44 °F
Humidity 37%
Rainfall -999.00 in
Snow Depth 0 in
UV 0 out of 12
Pollen 6.70 out of 12
Air Quality Not available.
Flu Activity Sporadic
METAR KEPH 121153Z AUTO 36007KT 10SM CLR 21/M01 A3000 RMK AO2 SLP149 T02061006 10289 20200 53011

More Conditions Fewer Conditions

Pressure 29.97 in
Visibility 10.0 miles
Clouds Clear
Heat Index 77 °F
Dew Point 44 °F
Humidity 37%
Rainfall -999.00 in
Snow Depth 0 in
UV 0 out of 12
Pollen 6.70 out of 12
Air Quality Not available.
Flu Activity Sporadic
METAR KEPH 121153Z AUTO 36007KT 10SM CLR 21/M01 A3000 RMK AO2 SLP149 T02061006 10289 20200 53011

More Conditions Fewer Conditions

10-Day Weather Forecast

Almanac

Astronomy

Jul. 12, 2014 Rise Set
Actual Time 5:16 AM PDT 8:53 PM PDT
Civil Twilight 4:37 AM PDT 9:32 PM PDT
Nautical Twilight 3:45 AM PDT 10:23 PM PDT
Astronomical Twilight 2:34 AM PDT 11:34 PM PDT
Moon 8:51 PM PDT 5:47 AM PDT
Length of Visible Light 16h 54m
Length of Day
15h 37m
Tomorrow will be 1m 39s shorter.
Full, 100% of the Moon is Illuminated
Today
Full
Jul 18
Last Quarter
Jul 26
New
Aug 3
First Quarter
Aug 10
Full

Today's Extremes

State Highs State Lows

Community

WunderPhotos

Upload Photos

1,732,792 photos uploaded!

WunderBlogs® & News

Nearby

Snow Depth

Station Depth Elevation
Trough 0 in 5300 ft
Grouse Camp 0 in 5380 ft
Sasse Ridge 0 in 4200 ft
Stevens Pass 0 in 4070 ft
Olallie Meadows 0 in 3700 ft

Earthquake Activity

City Distance Mag. Time & Date
No recent earthquake activity has been reported nearby.
Minimum magnitude displayed is 2.5.

Coastal Water Temperatures

Place Temperature
No Stations Reporting

Nearby Weather Stations

Station Location Temp. Heat Index Dew Point Humidity Wind Precip. Elev Updated Type
Winchester, Quincy, WA 71.6 °F 77 °F 44 °F 37% WNW  at  0.0 mph 0.00 in / hr 1350 ft 5:10 AM PDT Normal
COM - Winchester, Ephrata, WA 74.2 °F 76 °F 38 °F 27% West  at  6.1 mph 0.00 in / hr 1344 ft 5:10 AM PDT Rapid Fire
Pitcher Canyon, Wenatchee, WA 72.2 °F 77 °F 45 °F 38% WSW  at  1.0 mph 0.00 in / hr 1440 ft 5:10 AM PDT Normal
Sun East Ranch, Ellensburg, WA 69.6 °F - 30 °F 23% South  at  2.7 mph 0.00 in / hr 3028 ft 1:10 AM WST Rapid Fire
MesoWest UPPER WHEELER , Wenatchee, WA 60 °F - - - North  at  - 0.00 in / hr 4399 ft 4:00 AM PDT MADIS
MesoWest TROUGH , Malaga, WA 64 °F - 36 °F 35% South  at  2 mph 0.00 in / hr 5299 ft 4:00 AM PDT MADIS

Show More Stations Show Fewer Stations